sensor_id;sensor_type;location;lat;lon;timestamp;temperature;humidity
19307;DHT22;9788;48.194;16.318;2023-11-21T00:00:49;8.30;99.90
19307;DHT22;9788;48.194;16.318;2023-11-21T00:03:17;8.20;99.90
19307;DHT22;9788;48.194;16.318;2023-11-21T00:05:46;8.20;99.90
19307;DHT22;9788;48.194;16.318;2023-11-21T00:08:14;8.10;99.90
19307;DHT22;9788;48.194;16.318;2023-11-21T00:10:43;8.10;99.90
19307;DHT22;9788;48.194;16.318;2023-11-21T00:13:12;8.20;99.90
19307;DHT22;9788;48.194;16.318;2023-11-21T00:15:41;8.10;99.90
19307;DHT22;9788;48.194;16.318;2023-11-21T00:18:09;8.00;99.90
19307;DHT22;9788;48.194;16.318;2023-11-21T00:20:37;8.00;99.90
19307;DHT22;9788;48.194;16.318;2023-11-21T00:23:05;8.10;99.90
19307;DHT22;9788;48.194;16.318;2023-11-21T00:25:33;8.10;99.90
19307;DHT22;9788;48.194;16.318;2023-11-21T00:28:02;8.20;99.90
19307;DHT22;9788;48.194;16.318;2023-11-21T00:30:32;8.20;99.90
19307;DHT22;9788;48.194;16.318;2023-11-21T00:33:00;8.00;99.90
19307;DHT22;9788;48.194;16.318;2023-11-21T00:35:28;7.90;99.90
19307;DHT22;9788;48.194;16.318;2023-11-21T00:37:56;7.80;99.90
19307;DHT22;9788;48.194;16.318;2023-11-21T00:40:25;7.70;99.90
19307;DHT22;9788;48.194;16.318;2023-11-21T00:42:53;7.70;99.90
19307;DHT22;9788;48.194;16.318;2023-11-21T00:45:22;7.60;99.90
19307;DHT22;9788;48.194;16.318;2023-11-21T00:47:52;7.60;99.90
19307;DHT22;9788;48.194;16.318;2023-11-21T00:50:22;7.50;99.90
19307;DHT22;9788;48.194;16.318;2023-11-21T00:52:51;7.50;99.90
19307;DHT22;9788;48.194;16.318;2023-11-21T00:55:19;7.50;99.90
19307;DHT22;9788;48.194;16.318;2023-11-21T00:57:47;7.50;99.90
19307;DHT22;9788;48.194;16.318;2023-11-21T01:00:17;7.50;99.90
19307;DHT22;9788;48.194;16.318;2023-11-21T01:02:45;7.40;99.90
19307;DHT22;9788;48.194;16.318;2023-11-21T01:05:15;7.30;99.90
19307;DHT22;9788;48.194;16.318;2023-11-21T01:07:44;7.20;99.90
19307;DHT22;9788;48.194;16.318;2023-11-21T01:10:12;7.20;99.90
19307;DHT22;9788;48.194;16.318;2023-11-21T01:12:41;7.10;99.90
19307;DHT22;9788;48.194;16.318;2023-11-21T01:15:09;7.10;99.90
19307;DHT22;9788;48.194;16.318;2023-11-21T01:17:39;7.00;99.90
19307;DHT22;9788;48.194;16.318;2023-11-21T01:20:09;7.20;99.90
19307;DHT22;9788;48.194;16.318;2023-11-21T01:22:41;7.20;99.90
19307;DHT22;9788;48.194;16.318;2023-11-21T01:25:10;7.20;99.90
19307;DHT22;9788;48.194;16.318;2023-11-21T01:27:38;7.20;99.90
19307;DHT22;9788;48.194;16.318;2023-11-21T01:30:07;7.30;99.90
19307;DHT22;9788;48.194;16.318;2023-11-21T01:32:37;7.30;99.90
19307;DHT22;9788;48.194;16.318;2023-11-21T01:35:06;7.20;99.90
19307;DHT22;9788;48.194;16.318;2023-11-21T01:37:37;7.10;99.90
19307;DHT22;9788;48.194;16.318;2023-11-21T01:40:08;7.00;99.90
19307;DHT22;9788;48.194;16.318;2023-11-21T01:42:40;7.10;99.90
19307;DHT22;9788;48.194;16.318;2023-11-21T01:45:10;7.10;99.90
19307;DHT22;9788;48.194;16.318;2023-11-21T01:47:43;7.10;99.90
19307;DHT22;9788;48.194;16.318;2023-11-21T01:50:15;7.00;99.90
19307;DHT22;9788;48.194;16.318;2023-11-21T01:52:47;7.10;99.90
19307;DHT22;9788;48.194;16.318;2023-11-21T01:55:20;7.00;99.90
19307;DHT22;9788;48.194;16.318;2023-11-21T01:57:51;7.10;99.90
19307;DHT22;9788;48.194;16.318;2023-11-21T02:00:19;7.20;99.90
19307;DHT22;9788;48.194;16.318;2023-11-21T02:02:49;7.30;99.90
19307;DHT22;9788;48.194;16.318;2023-11-21T02:05:18;7.40;99.90
19307;DHT22;9788;48.194;16.318;2023-11-21T02:07:47;7.40;99.90
19307;DHT22;9788;48.194;16.318;2023-11-21T02:10:16;7.40;99.90
19307;DHT22;9788;48.194;16.318;2023-11-21T02:12:48;7.50;99.90
19307;DHT22;9788;48.194;16.318;2023-11-21T02:15:17;7.50;99.90
19307;DHT22;9788;48.194;16.318;2023-11-21T02:17:49;7.50;99.90
19307;DHT22;9788;48.194;16.318;2023-11-21T02:20:20;7.50;99.90
19307;DHT22;9788;48.194;16.318;2023-11-21T02:22:52;7.50;99.90
19307;DHT22;9788;48.194;16.318;2023-11-21T02:25:25;7.50;99.90
19307;DHT22;9788;48.194;16.318;2023-11-21T02:27:56;7.50;99.90
19307;DHT22;9788;48.194;16.318;2023-11-21T02:30:24;7.40;99.90
19307;DHT22;9788;48.194;16.318;2023-11-21T02:32:55;7.40;99.90
19307;DHT22;9788;48.194;16.318;2023-11-21T02:35:24;7.30;99.90
19307;DHT22;9788;48.194;16.318;2023-11-21T02:37:55;7.30;99.90
19307;DHT22;9788;48.194;16.318;2023-11-21T02:40:25;7.20;99.90
19307;DHT22;9788;48.194;16.318;2023-11-21T02:42:54;7.10;99.90
19307;DHT22;9788;48.194;16.318;2023-11-21T02:45:24;7.00;99.90
19307;DHT22;9788;48.194;16.318;2023-11-21T02:47:52;7.00;99.90
19307;DHT22;9788;48.194;16.318;2023-11-21T02:50:25;7.00;99.90
19307;DHT22;9788;48.194;16.318;2023-11-21T02:52:55;7.00;99.90
19307;DHT22;9788;48.194;16.318;2023-11-21T02:55:25;7.00;99.90
19307;DHT22;9788;48.194;16.318;2023-11-21T02:57:53;6.90;99.90
19307;DHT22;9788;48.194;16.318;2023-11-21T03:00:23;6.90;99.90
19307;DHT22;9788;48.194;16.318;2023-11-21T03:02:54;6.80;99.90
19307;DHT22;9788;48.194;16.318;2023-11-21T03:05:24;6.80;99.90
19307;DHT22;9788;48.194;16.318;2023-11-21T03:07:52;6.80;99.90
19307;DHT22;9788;48.194;16.318;2023-11-21T03:10:22;6.90;99.90
19307;DHT22;9788;48.194;16.318;2023-11-21T03:12:50;6.90;99.90
19307;DHT22;9788;48.194;16.318;2023-11-21T03:15:18;6.90;99.90
19307;DHT22;9788;48.194;16.318;2023-11-21T03:17:46;7.00;99.90
19307;DHT22;9788;48.194;16.318;2023-11-21T03:20:16;7.00;99.90
19307;DHT22;9788;48.194;16.318;2023-11-21T03:22:44;6.90;99.90
19307;DHT22;9788;48.194;16.318;2023-11-21T03:25:13;6.90;99.90
19307;DHT22;9788;48.194;16.318;2023-11-21T03:27:43;6.70;99.90
19307;DHT22;9788;48.194;16.318;2023-11-21T03:30:11;6.50;99.90
19307;DHT22;9788;48.194;16.318;2023-11-21T03:32:40;6.40;99.90
19307;DHT22;9788;48.194;16.318;2023-11-21T03:35:09;6.40;99.90
19307;DHT22;9788;48.194;16.318;2023-11-21T03:37:37;6.40;99.90
19307;DHT22;9788;48.194;16.318;2023-11-21T03:40:09;6.40;99.90
19307;DHT22;9788;48.194;16.318;2023-11-21T03:42:37;6.30;99.90
19307;DHT22;9788;48.194;16.318;2023-11-21T03:45:08;6.20;99.90
19307;DHT22;9788;48.194;16.318;2023-11-21T03:47:39;6.10;99.90
19307;DHT22;9788;48.194;16.318;2023-11-21T03:50:07;6.00;99.90
19307;DHT22;9788;48.194;16.318;2023-11-21T03:52:37;5.90;99.90
19307;DHT22;9788;48.194;16.318;2023-11-21T03:55:05;5.80;99.90
19307;DHT22;9788;48.194;16.318;2023-11-21T03:57:36;5.70;99.90
19307;DHT22;9788;48.194;16.318;2023-11-21T04:00:09;5.50;99.90
19307;DHT22;9788;48.194;16.318;2023-11-21T04:02:37;5.40;99.90
19307;DHT22;9788;48.194;16.318;2023-11-21T04:05:07;5.40;99.90
19307;DHT22;9788;48.194;16.318;2023-11-21T04:07:36;5.40;99.90
19307;DHT22;9788;48.194;16.318;2023-11-21T04:10:06;5.50;99.90
19307;DHT22;9788;48.194;16.318;2023-11-21T04:12:36;5.50;99.90
19307;DHT22;9788;48.194;16.318;2023-11-21T04:15:04;5.60;99.90
19307;DHT22;9788;48.194;16.318;2023-11-21T04:17:34;5.70;99.90
19307;DHT22;9788;48.194;16.318;2023-11-21T04:20:04;5.70;99.90
19307;DHT22;9788;48.194;16.318;2023-11-21T04:22:37;5.80;99.90
19307;DHT22;9788;48.194;16.318;2023-11-21T04:25:08;5.80;99.90
19307;DHT22;9788;48.194;16.318;2023-11-21T04:27:38;5.80;99.90
19307;DHT22;9788;48.194;16.318;2023-11-21T04:30:07;5.80;99.90
19307;DHT22;9788;48.194;16.318;2023-11-21T04:32:38;5.80;99.90
19307;DHT22;9788;48.194;16.318;2023-11-21T04:35:08;5.80;99.90
19307;DHT22;9788;48.194;16.318;2023-11-21T04:37:36;5.80;99.90
19307;DHT22;9788;48.194;16.318;2023-11-21T04:40:07;5.70;99.90
19307;DHT22;9788;48.194;16.318;2023-11-21T04:42:39;5.70;99.90
19307;DHT22;9788;48.194;16.318;2023-11-21T04:45:08;5.80;99.90
19307;DHT22;9788;48.194;16.318;2023-11-21T04:47:41;5.80;99.90
19307;DHT22;9788;48.194;16.318;2023-11-21T04:50:10;5.80;99.90
19307;DHT22;9788;48.194;16.318;2023-11-21T04:52:38;5.90;99.90
19307;DHT22;9788;48.194;16.318;2023-11-21T04:55:07;6.00;99.90
19307;DHT22;9788;48.194;16.318;2023-11-21T04:57:37;6.00;99.90
19307;DHT22;9788;48.194;16.318;2023-11-21T05:00:07;6.00;99.90
19307;DHT22;9788;48.194;16.318;2023-11-21T05:02:35;6.10;99.90
19307;DHT22;9788;48.194;16.318;2023-11-21T05:05:07;6.20;99.90
19307;DHT22;9788;48.194;16.318;2023-11-21T05:07:39;6.20;99.90
19307;DHT22;9788;48.194;16.318;2023-11-21T05:10:08;6.30;99.90
19307;DHT22;9788;48.194;16.318;2023-11-21T05:12:40;6.30;99.90
19307;DHT22;9788;48.194;16.318;2023-11-21T05:15:09;6.40;99.90
19307;DHT22;9788;48.194;16.318;2023-11-21T05:17:38;6.40;99.90
19307;DHT22;9788;48.194;16.318;2023-11-21T05:20:11;6.40;99.90
19307;DHT22;9788;48.194;16.318;2023-11-21T05:22:40;6.40;99.90
19307;DHT22;9788;48.194;16.318;2023-11-21T05:25:09;6.50;99.90
19307;DHT22;9788;48.194;16.318;2023-11-21T05:27:41;6.50;99.90
19307;DHT22;9788;48.194;16.318;2023-11-21T05:30:13;6.40;99.90
19307;DHT22;9788;48.194;16.318;2023-11-21T05:32:41;6.50;99.90
19307;DHT22;9788;48.194;16.318;2023-11-21T05:35:13;6.60;99.90
19307;DHT22;9788;48.194;16.318;2023-11-21T05:37:44;6.60;99.90
19307;DHT22;9788;48.194;16.318;2023-11-21T05:40:14;6.60;99.90
19307;DHT22;9788;48.194;16.318;2023-11-21T05:42:43;6.60;99.90
19307;DHT22;9788;48.194;16.318;2023-11-21T05:45:12;6.60;99.90
19307;DHT22;9788;48.194;16.318;2023-11-21T05:47:41;6.70;99.90
19307;DHT22;9788;48.194;16.318;2023-11-21T05:50:12;6.80;99.90
19307;DHT22;9788;48.194;16.318;2023-11-21T05:52:43;6.80;99.90
19307;DHT22;9788;48.194;16.318;2023-11-21T05:55:12;6.90;99.90
19307;DHT22;9788;48.194;16.318;2023-11-21T05:57:41;6.90;99.90
19307;DHT22;9788;48.194;16.318;2023-11-21T06:00:12;6.90;99.90
19307;DHT22;9788;48.194;16.318;2023-11-21T06:02:45;6.80;99.90
19307;DHT22;9788;48.194;16.318;2023-11-21T06:05:15;6.60;99.90
19307;DHT22;9788;48.194;16.318;2023-11-21T06:07:44;6.50;99.90
19307;DHT22;9788;48.194;16.318;2023-11-21T06:10:13;6.40;99.90
19307;DHT22;9788;48.194;16.318;2023-11-21T06:12:48;6.30;99.90
19307;DHT22;9788;48.194;16.318;2023-11-21T06:15:16;6.30;99.90
19307;DHT22;9788;48.194;16.318;2023-11-21T06:17:46;6.20;99.90
19307;DHT22;9788;48.194;16.318;2023-11-21T06:20:21;6.30;99.90
19307;DHT22;9788;48.194;16.318;2023-11-21T06:22:50;6.20;99.90
19307;DHT22;9788;48.194;16.318;2023-11-21T06:25:19;6.20;99.90
19307;DHT22;9788;48.194;16.318;2023-11-21T06:27:49;6.30;99.90
19307;DHT22;9788;48.194;16.318;2023-11-21T06:30:19;6.50;99.90
19307;DHT22;9788;48.194;16.318;2023-11-21T06:32:49;6.70;99.90
19307;DHT22;9788;48.194;16.318;2023-11-21T06:35:19;6.80;99.90
19307;DHT22;9788;48.194;16.318;2023-11-21T06:37:47;7.00;99.90
19307;DHT22;9788;48.194;16.318;2023-11-21T06:40:21;7.20;99.90
19307;DHT22;9788;48.194;16.318;2023-11-21T06:42:49;7.30;99.90
19307;DHT22;9788;48.194;16.318;2023-11-21T06:45:19;7.40;99.90
19307;DHT22;9788;48.194;16.318;2023-11-21T06:47:48;7.40;99.90
19307;DHT22;9788;48.194;16.318;2023-11-21T06:50:17;7.50;99.90
19307;DHT22;9788;48.194;16.318;2023-11-21T06:52:47;7.50;99.90
19307;DHT22;9788;48.194;16.318;2023-11-21T06:55:16;7.50;99.90
19307;DHT22;9788;48.194;16.318;2023-11-21T06:57:45;7.60;99.90
19307;DHT22;9788;48.194;16.318;2023-11-21T07:00:16;7.70;99.90
19307;DHT22;9788;48.194;16.318;2023-11-21T07:02:45;7.80;99.90
19307;DHT22;9788;48.194;16.318;2023-11-21T07:05:13;7.90;99.90
19307;DHT22;9788;48.194;16.318;2023-11-21T07:07:42;8.00;99.90
19307;DHT22;9788;48.194;16.318;2023-11-21T07:10:14;8.10;99.90
19307;DHT22;9788;48.194;16.318;2023-11-21T07:12:45;8.20;99.90
19307;DHT22;9788;48.194;16.318;2023-11-21T07:15:14;8.20;99.90
19307;DHT22;9788;48.194;16.318;2023-11-21T07:17:42;8.30;99.90
19307;DHT22;9788;48.194;16.318;2023-11-21T07:20:13;8.30;99.90
19307;DHT22;9788;48.194;16.318;2023-11-21T07:22:43;8.40;99.90
19307;DHT22;9788;48.194;16.318;2023-11-21T07:25:13;8.60;99.90
19307;DHT22;9788;48.194;16.318;2023-11-21T07:27:43;8.60;99.90
19307;DHT22;9788;48.194;16.318;2023-11-21T07:30:12;8.80;99.90
19307;DHT22;9788;48.194;16.318;2023-11-21T07:32:42;8.80;99.90
19307;DHT22;9788;48.194;16.318;2023-11-21T07:35:12;8.90;99.90
19307;DHT22;9788;48.194;16.318;2023-11-21T07:37:40;8.90;99.90
19307;DHT22;9788;48.194;16.318;2023-11-21T07:40:10;8.90;99.90
19307;DHT22;9788;48.194;16.318;2023-11-21T07:42:41;9.00;99.90
19307;DHT22;9788;48.194;16.318;2023-11-21T07:45:10;9.10;99.90
19307;DHT22;9788;48.194;16.318;2023-11-21T07:47:38;9.20;99.90
19307;DHT22;9788;48.194;16.318;2023-11-21T07:50:08;9.20;99.90
19307;DHT22;9788;48.194;16.318;2023-11-21T07:52:37;9.30;99.90
19307;DHT22;9788;48.194;16.318;2023-11-21T07:55:06;9.30;99.90
19307;DHT22;9788;48.194;16.318;2023-11-21T07:57:34;9.30;99.90
19307;DHT22;9788;48.194;16.318;2023-11-21T08:00:05;9.40;99.90
19307;DHT22;9788;48.194;16.318;2023-11-21T08:02:36;9.40;99.90
19307;DHT22;9788;48.194;16.318;2023-11-21T08:05:05;9.40;99.90
19307;DHT22;9788;48.194;16.318;2023-11-21T08:07:41;9.40;99.90
19307;DHT22;9788;48.194;16.318;2023-11-21T08:10:09;9.50;99.90
19307;DHT22;9788;48.194;16.318;2023-11-21T08:12:38;9.70;99.90
19307;DHT22;9788;48.194;16.318;2023-11-21T08:15:09;9.80;99.90
19307;DHT22;9788;48.194;16.318;2023-11-21T08:17:37;9.90;99.90
19307;DHT22;9788;48.194;16.318;2023-11-21T08:20:06;9.90;99.90
19307;DHT22;9788;48.194;16.318;2023-11-21T08:22:35;10.00;99.90
19307;DHT22;9788;48.194;16.318;2023-11-21T08:25:04;10.10;99.90
19307;DHT22;9788;48.194;16.318;2023-11-21T08:27:32;10.20;99.90
19307;DHT22;9788;48.194;16.318;2023-11-21T08:30:02;10.20;99.90
19307;DHT22;9788;48.194;16.318;2023-11-21T08:32:31;10.20;99.90
19307;DHT22;9788;48.194;16.318;2023-11-21T08:35:00;10.00;99.90
19307;DHT22;9788;48.194;16.318;2023-11-21T08:37:28;9.90;99.90
19307;DHT22;9788;48.194;16.318;2023-11-21T08:39:58;9.80;99.90
19307;DHT22;9788;48.194;16.318;2023-11-21T08:42:27;9.80;99.90
19307;DHT22;9788;48.194;16.318;2023-11-21T08:44:56;10.00;99.90
19307;DHT22;9788;48.194;16.318;2023-11-21T08:47:25;10.20;99.90
19307;DHT22;9788;48.194;16.318;2023-11-21T08:49:55;10.60;99.90
19307;DHT22;9788;48.194;16.318;2023-11-21T08:52:25;10.90;99.90
19307;DHT22;9788;48.194;16.318;2023-11-21T08:54:53;11.10;99.90
19307;DHT22;9788;48.194;16.318;2023-11-21T08:57:23;11.30;99.90
19307;DHT22;9788;48.194;16.318;2023-11-21T08:59:52;11.40;99.90
19307;DHT22;9788;48.194;16.318;2023-11-21T09:02:22;11.60;99.90
19307;DHT22;9788;48.194;16.318;2023-11-21T09:04:51;11.90;99.90
19307;DHT22;9788;48.194;16.318;2023-11-21T09:07:21;12.30;99.90
19307;DHT22;9788;48.194;16.318;2023-11-21T09:09:49;12.60;99.90
19307;DHT22;9788;48.194;16.318;2023-11-21T09:12:17;12.70;99.90
19307;DHT22;9788;48.194;16.318;2023-11-21T09:14:46;13.10;99.90
19307;DHT22;9788;48.194;16.318;2023-11-21T09:17:14;13.20;99.90
19307;DHT22;9788;48.194;16.318;2023-11-21T09:19:43;13.20;99.90
19307;DHT22;9788;48.194;16.318;2023-11-21T09:22:14;13.10;99.90
19307;DHT22;9788;48.194;16.318;2023-11-21T09:24:44;13.00;99.90
19307;DHT22;9788;48.194;16.318;2023-11-21T09:27:12;13.30;99.90
19307;DHT22;9788;48.194;16.318;2023-11-21T09:29:42;14.40;99.90
19307;DHT22;9788;48.194;16.318;2023-11-21T09:32:10;14.50;99.90
19307;DHT22;9788;48.194;16.318;2023-11-21T09:34:41;15.20;99.50
19307;DHT22;9788;48.194;16.318;2023-11-21T09:37:09;16.00;97.00
19307;DHT22;9788;48.194;16.318;2023-11-21T09:39:37;16.60;96.30
19307;DHT22;9788;48.194;16.318;2023-11-21T09:42:11;17.50;94.20
19307;DHT22;9788;48.194;16.318;2023-11-21T09:44:46;18.20;92.70
19307;DHT22;9788;48.194;16.318;2023-11-21T09:47:16;18.60;91.80
19307;DHT22;9788;48.194;16.318;2023-11-21T09:49:48;17.60;91.40
19307;DHT22;9788;48.194;16.318;2023-11-21T09:52:22;16.40;92.90
19307;DHT22;9788;48.194;16.318;2023-11-21T09:54:53;16.30;93.90
19307;DHT22;9788;48.194;16.318;2023-11-21T09:57:23;15.90;94.40
19307;DHT22;9788;48.194;16.318;2023-11-21T09:59:52;15.30;95.40
19307;DHT22;9788;48.194;16.318;2023-11-21T10:02:25;14.50;96.40
19307;DHT22;9788;48.194;16.318;2023-11-21T10:04:55;14.00;97.70
19307;DHT22;9788;48.194;16.318;2023-11-21T10:07:26;13.50;98.80
19307;DHT22;9788;48.194;16.318;2023-11-21T10:09:56;13.50;99.50
19307;DHT22;9788;48.194;16.318;2023-11-21T10:12:27;13.60;99.50
19307;DHT22;9788;48.194;16.318;2023-11-21T10:14:58;13.60;99.50
19307;DHT22;9788;48.194;16.318;2023-11-21T10:17:28;13.50;99.80
19307;DHT22;9788;48.194;16.318;2023-11-21T10:20:05;14.10;99.60
19307;DHT22;9788;48.194;16.318;2023-11-21T10:22:40;14.20;98.50
19307;DHT22;9788;48.194;16.318;2023-11-21T10:25:09;14.30;98.80
19307;DHT22;9788;48.194;16.318;2023-11-21T10:27:40;14.40;98.60
19307;DHT22;9788;48.194;16.318;2023-11-21T10:30:10;14.70;98.00
19307;DHT22;9788;48.194;16.318;2023-11-21T10:32:39;14.70;97.60
19307;DHT22;9788;48.194;16.318;2023-11-21T10:35:08;14.80;97.50
19307;DHT22;9788;48.194;16.318;2023-11-21T10:37:38;14.60;97.60
19307;DHT22;9788;48.194;16.318;2023-11-21T10:40:08;14.70;97.80
19307;DHT22;9788;48.194;16.318;2023-11-21T10:42:41;14.80;97.10
19307;DHT22;9788;48.194;16.318;2023-11-21T10:45:10;14.80;97.50
19307;DHT22;9788;48.194;16.318;2023-11-21T10:47:41;15.00;97.00
19307;DHT22;9788;48.194;16.318;2023-11-21T10:50:10;15.00;96.80
19307;DHT22;9788;48.194;16.318;2023-11-21T10:52:39;14.90;97.20
19307;DHT22;9788;48.194;16.318;2023-11-21T10:55:17;14.70;97.40
19307;DHT22;9788;48.194;16.318;2023-11-21T10:57:52;14.50;97.50
19307;DHT22;9788;48.194;16.318;2023-11-21T11:00:20;15.10;97.40
19307;DHT22;9788;48.194;16.318;2023-11-21T11:02:52;15.60;96.30
19307;DHT22;9788;48.194;16.318;2023-11-21T11:05:22;16.10;94.40
19307;DHT22;9788;48.194;16.318;2023-11-21T11:07:52;15.80;94.80
19307;DHT22;9788;48.194;16.318;2023-11-21T11:10:27;15.90;94.30
19307;DHT22;9788;48.194;16.318;2023-11-21T11:12:58;15.30;95.00
19307;DHT22;9788;48.194;16.318;2023-11-21T11:15:27;14.80;95.70
19307;DHT22;9788;48.194;16.318;2023-11-21T11:17:56;14.40;96.30
19307;DHT22;9788;48.194;16.318;2023-11-21T11:20:31;13.90;97.40
19307;DHT22;9788;48.194;16.318;2023-11-21T11:23:13;13.30;98.80
19307;DHT22;9788;48.194;16.318;2023-11-21T11:25:53;13.10;99.90
19307;DHT22;9788;48.194;16.318;2023-11-21T11:28:35;12.90;99.70
19307;DHT22;9788;48.194;16.318;2023-11-21T11:31:18;13.10;99.30
19307;DHT22;9788;48.194;16.318;2023-11-21T11:33:57;13.30;98.60
19307;DHT22;9788;48.194;16.318;2023-11-21T11:36:31;13.50;98.30
19307;DHT22;9788;48.194;16.318;2023-11-21T11:39:02;13.50;98.20
19307;DHT22;9788;48.194;16.318;2023-11-21T11:41:32;13.50;98.20
19307;DHT22;9788;48.194;16.318;2023-11-21T11:44:03;13.80;97.90
19307;DHT22;9788;48.194;16.318;2023-11-21T11:46:42;14.30;97.30
19307;DHT22;9788;48.194;16.318;2023-11-21T11:49:23;14.90;96.30
19307;DHT22;9788;48.194;16.318;2023-11-21T11:54:56;14.70;96.00
19307;DHT22;9788;48.194;16.318;2023-11-21T11:57:26;13.90;96.60
19307;DHT22;9788;48.194;16.318;2023-11-21T12:00:15;13.60;97.50
19307;DHT22;9788;48.194;16.318;2023-11-21T12:02:47;13.20;98.10
19307;DHT22;9788;48.194;16.318;2023-11-21T12:05:16;12.90;98.50
19307;DHT22;9788;48.194;16.318;2023-11-21T12:07:47;12.70;99.30
19307;DHT22;9788;48.194;16.318;2023-11-21T12:10:17;12.70;99.50
19307;DHT22;9788;48.194;16.318;2023-11-21T12:12:47;12.40;99.30
19307;DHT22;9788;48.194;16.318;2023-11-21T12:15:17;12.40;99.60
19307;DHT22;9788;48.194;16.318;2023-11-21T12:17:46;12.40;99.90
19307;DHT22;9788;48.194;16.318;2023-11-21T12:20:19;12.20;99.90
19307;DHT22;9788;48.194;16.318;2023-11-21T12:22:50;12.10;99.90
19307;DHT22;9788;48.194;16.318;2023-11-21T12:25:20;12.20;99.90
19307;DHT22;9788;48.194;16.318;2023-11-21T12:27:50;12.30;99.90
19307;DHT22;9788;48.194;16.318;2023-11-21T12:30:22;12.30;99.90
19307;DHT22;9788;48.194;16.318;2023-11-21T12:32:56;12.20;99.90
19307;DHT22;9788;48.194;16.318;2023-11-21T12:35:25;12.30;99.90
19307;DHT22;9788;48.194;16.318;2023-11-21T12:37:55;12.30;99.90
19307;DHT22;9788;48.194;16.318;2023-11-21T12:40:25;12.20;99.90
19307;DHT22;9788;48.194;16.318;2023-11-21T12:42:55;12.20;99.90
19307;DHT22;9788;48.194;16.318;2023-11-21T12:45:26;12.20;99.90
19307;DHT22;9788;48.194;16.318;2023-11-21T12:47:57;12.10;99.90
19307;DHT22;9788;48.194;16.318;2023-11-21T12:50:28;11.80;99.90
19307;DHT22;9788;48.194;16.318;2023-11-21T12:53:00;11.60;99.90
19307;DHT22;9788;48.194;16.318;2023-11-21T12:55:31;11.50;99.90
19307;DHT22;9788;48.194;16.318;2023-11-21T12:58:01;11.50;99.90
19307;DHT22;9788;48.194;16.318;2023-11-21T13:00:39;11.30;99.90
19307;DHT22;9788;48.194;16.318;2023-11-21T13:03:11;11.30;99.90
19307;DHT22;9788;48.194;16.318;2023-11-21T13:05:45;11.30;99.90
19307;DHT22;9788;48.194;16.318;2023-11-21T13:08:15;11.20;99.90
19307;DHT22;9788;48.194;16.318;2023-11-21T13:10:49;11.20;99.90
19307;DHT22;9788;48.194;16.318;2023-11-21T13:13:18;11.20;99.90
19307;DHT22;9788;48.194;16.318;2023-11-21T13:15:53;11.10;99.90
19307;DHT22;9788;48.194;16.318;2023-11-21T13:18:23;11.20;99.90
19307;DHT22;9788;48.194;16.318;2023-11-21T13:20:54;11.10;99.90
19307;DHT22;9788;48.194;16.318;2023-11-21T13:23:23;11.10;99.90
19307;DHT22;9788;48.194;16.318;2023-11-21T13:25:52;11.10;99.90
19307;DHT22;9788;48.194;16.318;2023-11-21T13:28:31;11.00;99.90
19307;DHT22;9788;48.194;16.318;2023-11-21T13:31:03;11.00;99.90
19307;DHT22;9788;48.194;16.318;2023-11-21T13:33:44;11.00;99.90
19307;DHT22;9788;48.194;16.318;2023-11-21T13:36:21;11.00;99.90
19307;DHT22;9788;48.194;16.318;2023-11-21T13:38:50;11.00;99.90
19307;DHT22;9788;48.194;16.318;2023-11-21T13:41:20;10.80;99.90
19307;DHT22;9788;48.194;16.318;2023-11-21T13:43:55;10.60;99.90
19307;DHT22;9788;48.194;16.318;2023-11-21T13:46:32;10.30;99.90
19307;DHT22;9788;48.194;16.318;2023-11-21T13:49:05;10.20;99.90
19307;DHT22;9788;48.194;16.318;2023-11-21T13:51:37;10.10;99.90
19307;DHT22;9788;48.194;16.318;2023-11-21T13:54:08;10.00;99.90
19307;DHT22;9788;48.194;16.318;2023-11-21T13:56:37;9.90;99.90
19307;DHT22;9788;48.194;16.318;2023-11-21T13:59:09;9.90;99.90
19307;DHT22;9788;48.194;16.318;2023-11-21T14:01:47;10.00;99.90
19307;DHT22;9788;48.194;16.318;2023-11-21T14:04:27;10.10;99.90
19307;DHT22;9788;48.194;16.318;2023-11-21T14:07:23;10.10;99.90
19307;DHT22;9788;48.194;16.318;2023-11-21T14:09:59;10.20;99.90
19307;DHT22;9788;48.194;16.318;2023-11-21T14:12:28;10.20;99.90
19307;DHT22;9788;48.194;16.318;2023-11-21T14:15:05;10.20;99.90
19307;DHT22;9788;48.194;16.318;2023-11-21T14:17:38;10.20;99.90
19307;DHT22;9788;48.194;16.318;2023-11-21T14:20:09;10.20;99.90
19307;DHT22;9788;48.194;16.318;2023-11-21T14:22:44;10.30;99.90
19307;DHT22;9788;48.194;16.318;2023-11-21T14:25:13;10.30;99.90
19307;DHT22;9788;48.194;16.318;2023-11-21T14:27:42;10.30;99.90
19307;DHT22;9788;48.194;16.318;2023-11-21T14:30:11;10.20;99.90
19307;DHT22;9788;48.194;16.318;2023-11-21T14:32:42;10.20;99.90
19307;DHT22;9788;48.194;16.318;2023-11-21T14:35:10;10.20;99.90
19307;DHT22;9788;48.194;16.318;2023-11-21T14:37:38;10.10;99.90
19307;DHT22;9788;48.194;16.318;2023-11-21T14:40:07;10.00;99.90
19307;DHT22;9788;48.194;16.318;2023-11-21T14:42:36;10.00;99.90
19307;DHT22;9788;48.194;16.318;2023-11-21T14:45:07;9.90;99.90
19307;DHT22;9788;48.194;16.318;2023-11-21T14:47:39;9.90;99.90
19307;DHT22;9788;48.194;16.318;2023-11-21T14:50:15;9.80;99.90
19307;DHT22;9788;48.194;16.318;2023-11-21T14:53:06;9.80;99.90
19307;DHT22;9788;48.194;16.318;2023-11-21T14:55:35;9.60;99.90
19307;DHT22;9788;48.194;16.318;2023-11-21T14:58:20;9.60;99.90
19307;DHT22;9788;48.194;16.318;2023-11-21T15:00:54;9.50;99.90
19307;DHT22;9788;48.194;16.318;2023-11-21T15:03:26;9.40;99.90
19307;DHT22;9788;48.194;16.318;2023-11-21T15:06:12;9.40;99.90
19307;DHT22;9788;48.194;16.318;2023-11-21T15:08:55;9.30;99.90
19307;DHT22;9788;48.194;16.318;2023-11-21T15:11:45;9.20;99.90
19307;DHT22;9788;48.194;16.318;2023-11-21T15:14:14;9.20;99.90
19307;DHT22;9788;48.194;16.318;2023-11-21T15:16:48;9.10;99.90
19307;DHT22;9788;48.194;16.318;2023-11-21T15:19:28;9.10;99.90
19307;DHT22;9788;48.194;16.318;2023-11-21T15:22:06;9.00;99.90
19307;DHT22;9788;48.194;16.318;2023-11-21T15:24:37;8.90;99.90
19307;DHT22;9788;48.194;16.318;2023-11-21T15:27:11;8.80;99.90
19307;DHT22;9788;48.194;16.318;2023-11-21T15:29:43;8.60;99.90
19307;DHT22;9788;48.194;16.318;2023-11-21T15:32:11;8.50;99.90
19307;DHT22;9788;48.194;16.318;2023-11-21T15:34:40;8.40;99.90
19307;DHT22;9788;48.194;16.318;2023-11-21T15:37:10;8.30;99.90
19307;DHT22;9788;48.194;16.318;2023-11-21T15:39:45;8.30;99.90
19307;DHT22;9788;48.194;16.318;2023-11-21T15:42:21;8.20;99.90
19307;DHT22;9788;48.194;16.318;2023-11-21T15:44:53;8.10;99.90
19307;DHT22;9788;48.194;16.318;2023-11-21T15:47:21;8.00;99.90
19307;DHT22;9788;48.194;16.318;2023-11-21T15:49:49;8.10;99.90
19307;DHT22;9788;48.194;16.318;2023-11-21T15:52:22;8.20;99.90
19307;DHT22;9788;48.194;16.318;2023-11-21T15:54:50;8.20;99.90
19307;DHT22;9788;48.194;16.318;2023-11-21T15:57:19;8.30;99.90
19307;DHT22;9788;48.194;16.318;2023-11-21T15:59:58;8.40;99.90
19307;DHT22;9788;48.194;16.318;2023-11-21T16:02:39;8.40;99.90
19307;DHT22;9788;48.194;16.318;2023-11-21T16:05:11;8.30;99.90